sensor_id;sensor_type;location;lat;lon;timestamp;P1;durP1;ratioP1;P2;durP2;ratioP2
73476;SDS011;61713;51.034;13.756;2022-09-09T00:05:32;6.90;;;6.20;;
73476;SDS011;61713;51.034;13.756;2022-09-09T00:07:53;6.63;;;5.93;;
73476;SDS011;61713;51.034;13.756;2022-09-09T00:15:38;8.23;;;6.60;;
73476;SDS011;61713;51.034;13.756;2022-09-09T00:18:14;8.15;;;6.18;;
73476;SDS011;61713;51.034;13.756;2022-09-09T00:23:32;8.88;;;7.20;;
73476;SDS011;61713;51.034;13.756;2022-09-09T00:28:46;8.38;;;6.88;;
73476;SDS011;61713;51.034;13.756;2022-09-09T00:31:28;8.50;;;6.88;;
73476;SDS011;61713;51.034;13.756;2022-09-09T00:33:56;9.20;;;7.60;;
73476;SDS011;61713;51.034;13.756;2022-09-09T00:36:28;7.47;;;6.68;;
73476;SDS011;61713;51.034;13.756;2022-09-09T00:38:59;9.68;;;6.95;;
73476;SDS011;61713;51.034;13.756;2022-09-09T00:41:38;9.80;;;7.32;;
73476;SDS011;61713;51.034;13.756;2022-09-09T00:47:04;10.27;;;8.50;;
73476;SDS011;61713;51.034;13.756;2022-09-09T00:52:32;9.73;;;8.23;;
73476;SDS011;61713;51.034;13.756;2022-09-09T00:55:25;10.30;;;9.18;;
73476;SDS011;61713;51.034;13.756;2022-09-09T00:57:58;10.35;;;8.05;;
73476;SDS011;61713;51.034;13.756;2022-09-09T01:00:29;10.07;;;9.07;;
73476;SDS011;61713;51.034;13.756;2022-09-09T01:08:39;8.75;;;7.70;;
73476;SDS011;61713;51.034;13.756;2022-09-09T01:11:25;10.73;;;8.95;;
73476;SDS011;61713;51.034;13.756;2022-09-09T01:16:50;9.55;;;8.55;;
73476;SDS011;61713;51.034;13.756;2022-09-09T01:22:26;9.57;;;7.68;;
73476;SDS011;61713;51.034;13.756;2022-09-09T01:27:55;10.30;;;7.30;;
73476;SDS011;61713;51.034;13.756;2022-09-09T01:30:24;9.77;;;7.20;;
73476;SDS011;61713;51.034;13.756;2022-09-09T01:32:51;11.07;;;7.30;;
73476;SDS011;61713;51.034;13.756;2022-09-09T01:38:04;9.70;;;7.15;;
73476;SDS011;61713;51.034;13.756;2022-09-09T01:40:30;8.05;;;6.90;;
73476;SDS011;61713;51.034;13.756;2022-09-09T01:42:56;7.80;;;6.57;;
73476;SDS011;61713;51.034;13.756;2022-09-09T01:45:22;7.78;;;6.07;;
73476;SDS011;61713;51.034;13.756;2022-09-09T01:47:49;9.52;;;6.35;;
73476;SDS011;61713;51.034;13.756;2022-09-09T01:50:17;9.60;;;6.80;;
73476;SDS011;61713;51.034;13.756;2022-09-09T01:52:44;7.82;;;6.97;;
73476;SDS011;61713;51.034;13.756;2022-09-09T01:55:12;8.32;;;6.68;;
73476;SDS011;61713;51.034;13.756;2022-09-09T01:57:55;9.57;;;7.00;;
73476;SDS011;61713;51.034;13.756;2022-09-09T02:00:40;8.38;;;6.50;;
73476;SDS011;61713;51.034;13.756;2022-09-09T02:03:20;8.27;;;6.72;;
73476;SDS011;61713;51.034;13.756;2022-09-09T02:05:55;9.30;;;7.68;;
73476;SDS011;61713;51.034;13.756;2022-09-09T02:08:52;8.23;;;7.43;;
73476;SDS011;61713;51.034;13.756;2022-09-09T02:11:21;8.98;;;6.93;;
73476;SDS011;61713;51.034;13.756;2022-09-09T02:13:49;9.23;;;6.90;;
73476;SDS011;61713;51.034;13.756;2022-09-09T02:19:15;8.32;;;6.63;;
73476;SDS011;61713;51.034;13.756;2022-09-09T02:21:50;8.35;;;7.20;;
73476;SDS011;61713;51.034;13.756;2022-09-09T02:24:18;7.03;;;6.32;;
73476;SDS011;61713;51.034;13.756;2022-09-09T02:26:45;9.00;;;6.07;;
73476;SDS011;61713;51.034;13.756;2022-09-09T02:29:17;8.20;;;6.10;;
73476;SDS011;61713;51.034;13.756;2022-09-09T02:31:58;7.00;;;5.90;;
73476;SDS011;61713;51.034;13.756;2022-09-09T02:34:29;8.27;;;6.10;;
73476;SDS011;61713;51.034;13.756;2022-09-09T02:36:59;7.95;;;6.43;;
73476;SDS011;61713;51.034;13.756;2022-09-09T02:39:26;9.57;;;6.33;;
73476;SDS011;61713;51.034;13.756;2022-09-09T02:41:52;8.00;;;6.43;;
73476;SDS011;61713;51.034;13.756;2022-09-09T02:44:18;9.80;;;6.90;;
73476;SDS011;61713;51.034;13.756;2022-09-09T02:52:27;9.80;;;6.72;;
73476;SDS011;61713;51.034;13.756;2022-09-09T02:55:37;7.43;;;6.07;;
73476;SDS011;61713;51.034;13.756;2022-09-09T02:58:05;7.77;;;5.67;;
73476;SDS011;61713;51.034;13.756;2022-09-09T03:00:33;7.22;;;4.95;;
73476;SDS011;61713;51.034;13.756;2022-09-09T03:03:00;8.20;;;5.22;;
73476;SDS011;61713;51.034;13.756;2022-09-09T03:05:28;6.97;;;5.03;;
73476;SDS011;61713;51.034;13.756;2022-09-09T03:07:53;6.77;;;5.17;;
73476;SDS011;61713;51.034;13.756;2022-09-09T03:10:19;6.97;;;5.47;;
73476;SDS011;61713;51.034;13.756;2022-09-09T03:12:45;6.07;;;4.73;;
73476;SDS011;61713;51.034;13.756;2022-09-09T03:15:11;6.50;;;4.67;;
73476;SDS011;61713;51.034;13.756;2022-09-09T03:17:36;7.63;;;4.70;;
73476;SDS011;61713;51.034;13.756;2022-09-09T03:20:03;7.20;;;5.10;;
73476;SDS011;61713;51.034;13.756;2022-09-09T03:22:29;6.43;;;4.85;;
73476;SDS011;61713;51.034;13.756;2022-09-09T03:24:55;6.40;;;4.78;;
73476;SDS011;61713;51.034;13.756;2022-09-09T03:27:20;5.90;;;4.37;;
73476;SDS011;61713;51.034;13.756;2022-09-09T03:29:46;7.35;;;4.53;;
73476;SDS011;61713;51.034;13.756;2022-09-09T03:32:12;5.93;;;3.88;;
73476;SDS011;61713;51.034;13.756;2022-09-09T03:34:38;6.68;;;4.68;;
73476;SDS011;61713;51.034;13.756;2022-09-09T03:37:06;6.78;;;3.90;;
73476;SDS011;61713;51.034;13.756;2022-09-09T03:39:32;5.20;;;3.95;;
73476;SDS011;61713;51.034;13.756;2022-09-09T03:41:57;5.30;;;4.03;;
73476;SDS011;61713;51.034;13.756;2022-09-09T03:44:23;6.07;;;4.18;;
73476;SDS011;61713;51.034;13.756;2022-09-09T03:46:48;5.38;;;4.40;;
73476;SDS011;61713;51.034;13.756;2022-09-09T03:49:14;6.53;;;4.65;;
73476;SDS011;61713;51.034;13.756;2022-09-09T03:51:40;5.20;;;4.22;;
73476;SDS011;61713;51.034;13.756;2022-09-09T03:54:06;5.35;;;4.00;;
73476;SDS011;61713;51.034;13.756;2022-09-09T03:56:33;6.80;;;4.30;;
73476;SDS011;61713;51.034;13.756;2022-09-09T03:58:59;6.68;;;4.72;;
73476;SDS011;61713;51.034;13.756;2022-09-09T04:01:25;6.28;;;4.63;;
73476;SDS011;61713;51.034;13.756;2022-09-09T04:03:50;6.03;;;4.80;;
73476;SDS011;61713;51.034;13.756;2022-09-09T04:06:16;7.00;;;4.72;;
73476;SDS011;61713;51.034;13.756;2022-09-09T04:08:42;5.60;;;4.73;;
73476;SDS011;61713;51.034;13.756;2022-09-09T04:11:09;5.25;;;4.35;;
73476;SDS011;61713;51.034;13.756;2022-09-09T04:13:35;5.83;;;4.70;;
73476;SDS011;61713;51.034;13.756;2022-09-09T04:16:05;8.55;;;4.40;;
73476;SDS011;61713;51.034;13.756;2022-09-09T04:18:31;6.80;;;4.63;;
73476;SDS011;61713;51.034;13.756;2022-09-09T04:20:57;6.97;;;4.82;;
73476;SDS011;61713;51.034;13.756;2022-09-09T04:23:23;5.28;;;4.63;;
73476;SDS011;61713;51.034;13.756;2022-09-09T04:25:53;7.25;;;4.90;;
73476;SDS011;61713;51.034;13.756;2022-09-09T04:28:20;7.13;;;5.35;;
73476;SDS011;61713;51.034;13.756;2022-09-09T04:30:47;7.53;;;5.20;;
73476;SDS011;61713;51.034;13.756;2022-09-09T04:33:13;5.73;;;5.00;;
73476;SDS011;61713;51.034;13.756;2022-09-09T04:35:39;6.13;;;4.65;;
73476;SDS011;61713;51.034;13.756;2022-09-09T04:38:09;8.48;;;5.35;;
73476;SDS011;61713;51.034;13.756;2022-09-09T04:40:35;7.30;;;5.25;;
73476;SDS011;61713;51.034;13.756;2022-09-09T04:43:01;6.63;;;5.55;;
73476;SDS011;61713;51.034;13.756;2022-09-09T04:45:29;8.68;;;6.40;;
73476;SDS011;61713;51.034;13.756;2022-09-09T04:47:55;7.17;;;5.57;;
73476;SDS011;61713;51.034;13.756;2022-09-09T04:50:22;6.22;;;5.43;;
73476;SDS011;61713;51.034;13.756;2022-09-09T04:52:47;7.83;;;5.90;;
73476;SDS011;61713;51.034;13.756;2022-09-09T04:55:13;8.20;;;5.75;;
73476;SDS011;61713;51.034;13.756;2022-09-09T04:57:39;9.00;;;6.10;;
73476;SDS011;61713;51.034;13.756;2022-09-09T05:00:05;7.82;;;5.57;;
73476;SDS011;61713;51.034;13.756;2022-09-09T05:02:31;7.75;;;5.82;;
73476;SDS011;61713;51.034;13.756;2022-09-09T05:04:57;9.73;;;6.70;;
73476;SDS011;61713;51.034;13.756;2022-09-09T05:07:23;8.98;;;6.15;;
73476;SDS011;61713;51.034;13.756;2022-09-09T05:09:51;10.38;;;7.30;;
73476;SDS011;61713;51.034;13.756;2022-09-09T05:12:16;12.03;;;8.47;;
73476;SDS011;61713;51.034;13.756;2022-09-09T05:14:42;11.40;;;8.65;;
73476;SDS011;61713;51.034;13.756;2022-09-09T05:17:08;8.05;;;5.25;;
73476;SDS011;61713;51.034;13.756;2022-09-09T05:19:34;10.32;;;5.28;;
73476;SDS011;61713;51.034;13.756;2022-09-09T05:21:59;9.80;;;5.67;;
73476;SDS011;61713;51.034;13.756;2022-09-09T05:24:26;6.57;;;4.97;;
73476;SDS011;61713;51.034;13.756;2022-09-09T05:26:51;7.37;;;4.20;;
73476;SDS011;61713;51.034;13.756;2022-09-09T05:29:17;6.50;;;4.60;;
73476;SDS011;61713;51.034;13.756;2022-09-09T05:31:44;5.88;;;4.10;;
73476;SDS011;61713;51.034;13.756;2022-09-09T05:34:10;4.40;;;3.80;;
73476;SDS011;61713;51.034;13.756;2022-09-09T05:36:36;5.30;;;3.75;;
73476;SDS011;61713;51.034;13.756;2022-09-09T05:39:02;4.97;;;3.57;;
73476;SDS011;61713;51.034;13.756;2022-09-09T05:41:28;5.72;;;3.88;;
73476;SDS011;61713;51.034;13.756;2022-09-09T05:43:54;3.80;;;3.23;;
73476;SDS011;61713;51.034;13.756;2022-09-09T05:46:21;5.77;;;3.27;;
73476;SDS011;61713;51.034;13.756;2022-09-09T05:48:50;4.93;;;3.17;;
73476;SDS011;61713;51.034;13.756;2022-09-09T05:51:17;7.20;;;3.60;;
73476;SDS011;61713;51.034;13.756;2022-09-09T05:53:49;6.75;;;3.85;;
73476;SDS011;61713;51.034;13.756;2022-09-09T05:56:17;5.28;;;3.50;;
73476;SDS011;61713;51.034;13.756;2022-09-09T05:58:44;6.03;;;3.75;;
73476;SDS011;61713;51.034;13.756;2022-09-09T06:01:16;5.38;;;3.42;;
73476;SDS011;61713;51.034;13.756;2022-09-09T06:03:44;4.55;;;3.05;;
73476;SDS011;61713;51.034;13.756;2022-09-09T06:06:12;5.32;;;3.20;;
73476;SDS011;61713;51.034;13.756;2022-09-09T06:08:40;5.20;;;3.30;;
73476;SDS011;61713;51.034;13.756;2022-09-09T06:11:10;4.90;;;3.25;;
73476;SDS011;61713;51.034;13.756;2022-09-09T06:13:40;5.65;;;3.10;;
73476;SDS011;61713;51.034;13.756;2022-09-09T06:16:10;4.20;;;2.70;;
73476;SDS011;61713;51.034;13.756;2022-09-09T06:18:37;4.90;;;2.92;;
73476;SDS011;61713;51.034;13.756;2022-09-09T06:21:04;3.92;;;3.17;;
73476;SDS011;61713;51.034;13.756;2022-09-09T06:23:31;4.38;;;3.00;;
73476;SDS011;61713;51.034;13.756;2022-09-09T06:26:01;5.47;;;2.72;;
73476;SDS011;61713;51.034;13.756;2022-09-09T06:28:38;4.55;;;3.08;;
73476;SDS011;61713;51.034;13.756;2022-09-09T06:31:04;5.23;;;2.97;;
73476;SDS011;61713;51.034;13.756;2022-09-09T06:33:32;6.47;;;3.20;;
73476;SDS011;61713;51.034;13.756;2022-09-09T06:36:00;5.07;;;3.20;;
73476;SDS011;61713;51.034;13.756;2022-09-09T06:38:26;7.03;;;3.35;;
73476;SDS011;61713;51.034;13.756;2022-09-09T06:40:56;5.35;;;3.22;;
73476;SDS011;61713;51.034;13.756;2022-09-09T06:43:26;7.07;;;2.95;;
73476;SDS011;61713;51.034;13.756;2022-09-09T06:45:59;5.93;;;3.70;;
73476;SDS011;61713;51.034;13.756;2022-09-09T06:48:26;5.93;;;3.05;;
73476;SDS011;61713;51.034;13.756;2022-09-09T06:51:09;5.30;;;3.05;;
73476;SDS011;61713;51.034;13.756;2022-09-09T06:53:36;6.80;;;3.30;;
73476;SDS011;61713;51.034;13.756;2022-09-09T06:56:17;7.95;;;3.83;;
73476;SDS011;61713;51.034;13.756;2022-09-09T06:58:48;6.38;;;3.20;;
73476;SDS011;61713;51.034;13.756;2022-09-09T07:01:18;5.43;;;3.15;;
73476;SDS011;61713;51.034;13.756;2022-09-09T07:03:46;5.30;;;2.88;;
73476;SDS011;61713;51.034;13.756;2022-09-09T07:06:16;5.28;;;2.90;;
73476;SDS011;61713;51.034;13.756;2022-09-09T07:08:50;4.07;;;2.67;;
73476;SDS011;61713;51.034;13.756;2022-09-09T07:11:20;4.35;;;2.80;;
73476;SDS011;61713;51.034;13.756;2022-09-09T07:13:46;3.53;;;2.50;;
73476;SDS011;61713;51.034;13.756;2022-09-09T07:16:14;4.63;;;2.70;;
73476;SDS011;61713;51.034;13.756;2022-09-09T07:18:42;4.80;;;3.00;;
73476;SDS011;61713;51.034;13.756;2022-09-09T07:21:08;4.78;;;2.80;;
73476;SDS011;61713;51.034;13.756;2022-09-09T07:23:35;5.20;;;2.92;;
73476;SDS011;61713;51.034;13.756;2022-09-09T07:26:01;5.27;;;2.60;;
73476;SDS011;61713;51.034;13.756;2022-09-09T07:28:28;5.17;;;2.90;;
73476;SDS011;61713;51.034;13.756;2022-09-09T07:30:56;6.78;;;3.22;;
73476;SDS011;61713;51.034;13.756;2022-09-09T07:33:23;4.05;;;2.70;;
73476;SDS011;61713;51.034;13.756;2022-09-09T07:35:49;4.95;;;2.95;;
73476;SDS011;61713;51.034;13.756;2022-09-09T07:38:16;5.95;;;2.35;;
73476;SDS011;61713;51.034;13.756;2022-09-09T07:40:42;4.07;;;2.38;;
73476;SDS011;61713;51.034;13.756;2022-09-09T07:43:08;4.90;;;2.53;;
73476;SDS011;61713;51.034;13.756;2022-09-09T07:45:34;5.60;;;2.60;;
73476;SDS011;61713;51.034;13.756;2022-09-09T07:48:00;6.45;;;2.80;;
73476;SDS011;61713;51.034;13.756;2022-09-09T07:50:26;3.63;;;2.23;;
73476;SDS011;61713;51.034;13.756;2022-09-09T07:52:51;4.50;;;2.43;;
73476;SDS011;61713;51.034;13.756;2022-09-09T07:55:18;5.97;;;2.55;;
73476;SDS011;61713;51.034;13.756;2022-09-09T07:57:44;3.92;;;2.40;;
73476;SDS011;61713;51.034;13.756;2022-09-09T08:00:10;5.23;;;2.50;;
73476;SDS011;61713;51.034;13.756;2022-09-09T08:02:36;4.72;;;2.38;;
73476;SDS011;61713;51.034;13.756;2022-09-09T08:05:02;3.30;;;2.20;;
73476;SDS011;61713;51.034;13.756;2022-09-09T08:07:27;4.53;;;2.35;;
73476;SDS011;61713;51.034;13.756;2022-09-09T08:09:54;3.83;;;2.38;;
73476;SDS011;61713;51.034;13.756;2022-09-09T08:12:20;3.95;;;2.20;;
73476;SDS011;61713;51.034;13.756;2022-09-09T08:14:46;3.80;;;2.22;;
73476;SDS011;61713;51.034;13.756;2022-09-09T08:17:11;3.83;;;1.80;;
73476;SDS011;61713;51.034;13.756;2022-09-09T08:19:37;4.57;;;2.30;;
73476;SDS011;61713;51.034;13.756;2022-09-09T08:22:02;3.38;;;2.10;;
73476;SDS011;61713;51.034;13.756;2022-09-09T08:24:28;4.22;;;2.40;;
73476;SDS011;61713;51.034;13.756;2022-09-09T08:26:54;5.60;;;2.35;;
73476;SDS011;61713;51.034;13.756;2022-09-09T08:29:21;5.15;;;2.53;;
73476;SDS011;61713;51.034;13.756;2022-09-09T08:31:48;3.95;;;2.17;;
73476;SDS011;61713;51.034;13.756;2022-09-09T08:34:16;4.75;;;2.20;;
73476;SDS011;61713;51.034;13.756;2022-09-09T08:36:45;3.78;;;2.00;;
73476;SDS011;61713;51.034;13.756;2022-09-09T08:39:13;4.78;;;2.00;;
73476;SDS011;61713;51.034;13.756;2022-09-09T08:49:48;3.88;;;2.20;;
73476;SDS011;61713;51.034;13.756;2022-09-09T08:52:49;3.35;;;1.80;;
73476;SDS011;61713;51.034;13.756;2022-09-09T09:10:03;8.18;;;3.10;;
73476;SDS011;61713;51.034;13.756;2022-09-09T09:12:44;7.35;;;3.47;;
73476;SDS011;61713;51.034;13.756;2022-09-09T09:15:19;5.82;;;2.70;;
73476;SDS011;61713;51.034;13.756;2022-09-09T09:17:48;5.07;;;2.23;;
73476;SDS011;61713;51.034;13.756;2022-09-09T09:20:15;4.90;;;2.53;;
73476;SDS011;61713;51.034;13.756;2022-09-09T09:22:51;24.92;;;15.35;;
73476;SDS011;61713;51.034;13.756;2022-09-09T09:25:19;7.82;;;3.63;;
73476;SDS011;61713;51.034;13.756;2022-09-09T09:27:49;7.25;;;2.83;;
73476;SDS011;61713;51.034;13.756;2022-09-09T09:30:39;5.93;;;2.80;;
73476;SDS011;61713;51.034;13.756;2022-09-09T09:33:27;5.13;;;1.70;;
73476;SDS011;61713;51.034;13.756;2022-09-09T09:35:58;7.10;;;2.80;;
73476;SDS011;61713;51.034;13.756;2022-09-09T09:38:25;3.47;;;1.50;;
73476;SDS011;61713;51.034;13.756;2022-09-09T09:40:56;3.42;;;1.80;;
73476;SDS011;61713;51.034;13.756;2022-09-09T09:43:30;3.90;;;1.55;;
73476;SDS011;61713;51.034;13.756;2022-09-09T09:45:57;5.00;;;1.80;;
73476;SDS011;61713;51.034;13.756;2022-09-09T09:48:23;5.25;;;1.88;;
73476;SDS011;61713;51.034;13.756;2022-09-09T09:50:54;3.72;;;1.63;;
73476;SDS011;61713;51.034;13.756;2022-09-09T09:53:28;4.78;;;1.70;;
73476;SDS011;61713;51.034;13.756;2022-09-09T09:56:00;3.65;;;1.50;;
73476;SDS011;61713;51.034;13.756;2022-09-09T09:58:33;5.32;;;1.85;;
73476;SDS011;61713;51.034;13.756;2022-09-09T10:01:26;4.77;;;1.50;;
73476;SDS011;61713;51.034;13.756;2022-09-09T10:03:57;4.55;;;1.60;;
73476;SDS011;61713;51.034;13.756;2022-09-09T10:09:01;4.70;;;1.60;;
73476;SDS011;61713;51.034;13.756;2022-09-09T10:11:30;5.78;;;1.98;;
73476;SDS011;61713;51.034;13.756;2022-09-09T10:19:30;3.85;;;1.80;;
73476;SDS011;61713;51.034;13.756;2022-09-09T10:24:42;4.53;;;1.60;;
73476;SDS011;61713;51.034;13.756;2022-09-09T10:29:46;5.25;;;1.60;;
73476;SDS011;61713;51.034;13.756;2022-09-09T10:35:30;4.03;;;1.88;;
73476;SDS011;61713;51.034;13.756;2022-09-09T10:38:03;3.20;;;1.50;;
73476;SDS011;61713;51.034;13.756;2022-09-09T10:57:35;3.45;;;1.38;;
73476;SDS011;61713;51.034;13.756;2022-09-09T11:00:05;2.70;;;1.52;;
73476;SDS011;61713;51.034;13.756;2022-09-09T11:02:39;3.50;;;1.50;;
73476;SDS011;61713;51.034;13.756;2022-09-09T11:05:10;2.90;;;1.55;;
73476;SDS011;61713;51.034;13.756;2022-09-09T11:07:54;2.75;;;1.40;;
73476;SDS011;61713;51.034;13.756;2022-09-09T11:10:24;4.10;;;1.55;;
73476;SDS011;61713;51.034;13.756;2022-09-09T11:13:04;4.05;;;1.55;;
73476;SDS011;61713;51.034;13.756;2022-09-09T11:15:41;3.78;;;1.58;;
73476;SDS011;61713;51.034;13.756;2022-09-09T11:18:13;4.15;;;1.35;;
73476;SDS011;61713;51.034;13.756;2022-09-09T11:20:43;4.13;;;1.58;;
73476;SDS011;61713;51.034;13.756;2022-09-09T11:23:13;3.80;;;1.80;;
73476;SDS011;61713;51.034;13.756;2022-09-09T11:25:51;4.78;;;1.75;;
73476;SDS011;61713;51.034;13.756;2022-09-09T11:31:17;3.67;;;1.75;;
73476;SDS011;61713;51.034;13.756;2022-09-09T11:39:52;3.85;;;1.70;;
73476;SDS011;61713;51.034;13.756;2022-09-09T11:42:25;3.40;;;1.77;;
73476;SDS011;61713;51.034;13.756;2022-09-09T11:44:51;4.20;;;1.75;;
73476;SDS011;61713;51.034;13.756;2022-09-09T11:47:21;5.43;;;1.88;;
73476;SDS011;61713;51.034;13.756;2022-09-09T11:49:51;4.35;;;1.58;;
73476;SDS011;61713;51.034;13.756;2022-09-09T11:52:37;3.17;;;1.67;;
73476;SDS011;61713;51.034;13.756;2022-09-09T11:55:11;4.03;;;1.50;;
73476;SDS011;61713;51.034;13.756;2022-09-09T11:58:14;3.78;;;1.50;;
73476;SDS011;61713;51.034;13.756;2022-09-09T12:06:17;4.90;;;2.00;;
73476;SDS011;61713;51.034;13.756;2022-09-09T12:08:58;3.40;;;1.60;;
73476;SDS011;61713;51.034;13.756;2022-09-09T12:11:35;4.60;;;1.63;;
73476;SDS011;61713;51.034;13.756;2022-09-09T12:14:02;3.83;;;1.80;;
73476;SDS011;61713;51.034;13.756;2022-09-09T12:16:37;5.18;;;1.85;;
73476;SDS011;61713;51.034;13.756;2022-09-09T12:24:33;2.40;;;1.40;;
73476;SDS011;61713;51.034;13.756;2022-09-09T12:27:06;3.42;;;1.65;;
73476;SDS011;61713;51.034;13.756;2022-09-09T12:32:20;3.50;;;1.58;;
73476;SDS011;61713;51.034;13.756;2022-09-09T12:34:51;2.78;;;1.63;;
73476;SDS011;61713;51.034;13.756;2022-09-09T12:37:36;3.10;;;1.60;;
73476;SDS011;61713;51.034;13.756;2022-09-09T12:40:04;4.27;;;1.73;;
73476;SDS011;61713;51.034;13.756;2022-09-09T12:42:31;2.80;;;1.60;;
73476;SDS011;61713;51.034;13.756;2022-09-09T12:45:01;4.40;;;1.77;;
73476;SDS011;61713;51.034;13.756;2022-09-09T12:47:41;4.55;;;1.55;;
73476;SDS011;61713;51.034;13.756;2022-09-09T12:50:21;2.80;;;1.60;;
73476;SDS011;61713;51.034;13.756;2022-09-09T12:52:50;4.10;;;1.85;;
73476;SDS011;61713;51.034;13.756;2022-09-09T12:55:20;3.58;;;1.65;;
73476;SDS011;61713;51.034;13.756;2022-09-09T12:57:50;2.70;;;1.48;;
73476;SDS011;61713;51.034;13.756;2022-09-09T13:00:17;3.65;;;1.48;;
73476;SDS011;61713;51.034;13.756;2022-09-09T13:02:48;3.38;;;1.40;;
73476;SDS011;61713;51.034;13.756;2022-09-09T13:05:21;3.80;;;1.63;;
73476;SDS011;61713;51.034;13.756;2022-09-09T13:07:48;3.30;;;1.55;;
73476;SDS011;61713;51.034;13.756;2022-09-09T13:10:14;3.72;;;1.77;;
73476;SDS011;61713;51.034;13.756;2022-09-09T13:12:46;2.80;;;1.50;;
73476;SDS011;61713;51.034;13.756;2022-09-09T13:15:14;4.28;;;1.58;;
73476;SDS011;61713;51.034;13.756;2022-09-09T13:17:49;4.20;;;2.30;;
73476;SDS011;61713;51.034;13.756;2022-09-09T13:20:17;5.22;;;2.50;;
73476;SDS011;61713;51.034;13.756;2022-09-09T13:22:44;3.30;;;1.90;;
73476;SDS011;61713;51.034;13.756;2022-09-09T13:27:36;8.80;;;7.85;;
73476;SDS011;61713;51.034;13.756;2022-09-09T13:33:00;6.93;;;3.60;;
73476;SDS011;61713;51.034;13.756;2022-09-09T13:35:34;3.58;;;2.40;;
73476;SDS011;61713;51.034;13.756;2022-09-09T13:38:12;3.53;;;2.40;;
73476;SDS011;61713;51.034;13.756;2022-09-09T13:40:39;3.47;;;2.15;;
73476;SDS011;61713;51.034;13.756;2022-09-09T13:43:05;4.75;;;3.28;;
73476;SDS011;61713;51.034;13.756;2022-09-09T13:45:40;5.35;;;3.22;;
73476;SDS011;61713;51.034;13.756;2022-09-09T13:48:09;4.90;;;1.97;;
73476;SDS011;61713;51.034;13.756;2022-09-09T13:50:35;3.50;;;1.98;;
73476;SDS011;61713;51.034;13.756;2022-09-09T13:53:01;4.03;;;1.90;;
73476;SDS011;61713;51.034;13.756;2022-09-09T13:55:27;4.93;;;2.23;;
73476;SDS011;61713;51.034;13.756;2022-09-09T13:57:57;2.08;;;1.58;;
73476;SDS011;61713;51.034;13.756;2022-09-09T14:00:31;3.08;;;1.52;;
73476;SDS011;61713;51.034;13.756;2022-09-09T14:03:00;3.25;;;1.60;;
73476;SDS011;61713;51.034;13.756;2022-09-09T14:05:29;4.30;;;1.90;;
73476;SDS011;61713;51.034;13.756;2022-09-09T14:07:57;4.20;;;2.05;;
73476;SDS011;61713;51.034;13.756;2022-09-09T14:10:23;3.53;;;2.10;;
73476;SDS011;61713;51.034;13.756;2022-09-09T14:12:48;4.60;;;2.30;;
73476;SDS011;61713;51.034;13.756;2022-09-09T14:15:14;4.17;;;1.70;;
73476;SDS011;61713;51.034;13.756;2022-09-09T14:17:40;5.03;;;2.00;;
73476;SDS011;61713;51.034;13.756;2022-09-09T14:20:06;4.38;;;2.40;;
73476;SDS011;61713;51.034;13.756;2022-09-09T14:22:34;4.60;;;1.88;;
73476;SDS011;61713;51.034;13.756;2022-09-09T14:25:00;3.50;;;1.70;;
73476;SDS011;61713;51.034;13.756;2022-09-09T14:27:26;2.78;;;1.40;;
73476;SDS011;61713;51.034;13.756;2022-09-09T14:29:51;4.10;;;2.20;;
73476;SDS011;61713;51.034;13.756;2022-09-09T14:32:17;4.28;;;1.60;;
73476;SDS011;61713;51.034;13.756;2022-09-09T14:34:43;3.88;;;1.55;;
73476;SDS011;61713;51.034;13.756;2022-09-09T14:37:08;3.57;;;1.50;;
73476;SDS011;61713;51.034;13.756;2022-09-09T14:39:34;2.88;;;1.30;;
73476;SDS011;61713;51.034;13.756;2022-09-09T14:41:59;3.43;;;1.40;;
73476;SDS011;61713;51.034;13.756;2022-09-09T14:44:27;3.40;;;1.65;;
73476;SDS011;61713;51.034;13.756;2022-09-09T14:46:52;3.47;;;1.50;;
73476;SDS011;61713;51.034;13.756;2022-09-09T14:49:19;2.95;;;1.40;;
73476;SDS011;61713;51.034;13.756;2022-09-09T14:51:44;4.68;;;1.80;;
73476;SDS011;61713;51.034;13.756;2022-09-09T14:54:10;3.00;;;1.70;;
73476;SDS011;61713;51.034;13.756;2022-09-09T14:56:35;2.58;;;1.35;;
73476;SDS011;61713;51.034;13.756;2022-09-09T14:59:01;3.13;;;1.38;;
73476;SDS011;61713;51.034;13.756;2022-09-09T15:01:27;4.60;;;2.45;;
73476;SDS011;61713;51.034;13.756;2022-09-09T15:03:55;5.65;;;2.65;;
73476;SDS011;61713;51.034;13.756;2022-09-09T15:06:23;3.38;;;1.50;;
73476;SDS011;61713;51.034;13.756;2022-09-09T15:08:50;3.47;;;1.75;;
73476;SDS011;61713;51.034;13.756;2022-09-09T15:11:17;3.83;;;2.08;;
73476;SDS011;61713;51.034;13.756;2022-09-09T15:13:44;3.58;;;1.70;;
73476;SDS011;61713;51.034;13.756;2022-09-09T15:16:11;5.22;;;2.13;;
73476;SDS011;61713;51.034;13.756;2022-09-09T15:18:38;3.20;;;1.75;;
73476;SDS011;61713;51.034;13.756;2022-09-09T15:21:15;3.90;;;1.60;;
73476;SDS011;61713;51.034;13.756;2022-09-09T15:23:43;3.63;;;1.50;;
73476;SDS011;61713;51.034;13.756;2022-09-09T15:26:09;4.47;;;1.80;;
73476;SDS011;61713;51.034;13.756;2022-09-09T15:28:36;3.93;;;2.60;;
73476;SDS011;61713;51.034;13.756;2022-09-09T15:31:09;4.82;;;2.88;;
73476;SDS011;61713;51.034;13.756;2022-09-09T15:33:39;4.63;;;1.73;;
73476;SDS011;61713;51.034;13.756;2022-09-09T15:36:18;4.07;;;1.60;;
73476;SDS011;61713;51.034;13.756;2022-09-09T15:38:48;3.55;;;1.60;;
73476;SDS011;61713;51.034;13.756;2022-09-09T15:41:14;4.72;;;1.95;;
73476;SDS011;61713;51.034;13.756;2022-09-09T15:43:45;3.20;;;1.65;;
73476;SDS011;61713;51.034;13.756;2022-09-09T15:46:25;3.80;;;1.63;;
73476;SDS011;61713;51.034;13.756;2022-09-09T15:48:53;3.80;;;1.60;;
73476;SDS011;61713;51.034;13.756;2022-09-09T15:51:20;4.18;;;2.00;;
73476;SDS011;61713;51.034;13.756;2022-09-09T15:53:46;3.60;;;1.60;;
73476;SDS011;61713;51.034;13.756;2022-09-09T15:56:12;5.63;;;2.33;;
73476;SDS011;61713;51.034;13.756;2022-09-09T15:58:38;3.40;;;1.73;;
73476;SDS011;61713;51.034;13.756;2022-09-09T16:01:04;4.10;;;2.07;;
73476;SDS011;61713;51.034;13.756;2022-09-09T16:03:35;4.78;;;2.10;;
73476;SDS011;61713;51.034;13.756;2022-09-09T16:06:07;5.20;;;1.88;;
73476;SDS011;61713;51.034;13.756;2022-09-09T16:08:34;4.72;;;1.85;;
73476;SDS011;61713;51.034;13.756;2022-09-09T16:11:08;5.25;;;2.42;;
73476;SDS011;61713;51.034;13.756;2022-09-09T16:13:42;5.43;;;1.92;;
73476;SDS011;61713;51.034;13.756;2022-09-09T16:16:12;2.88;;;1.80;;
73476;SDS011;61713;51.034;13.756;2022-09-09T16:18:39;3.45;;;2.00;;
73476;SDS011;61713;51.034;13.756;2022-09-09T16:21:14;4.30;;;2.07;;
73476;SDS011;61713;51.034;13.756;2022-09-09T16:23:42;4.60;;;2.10;;
73476;SDS011;61713;51.034;13.756;2022-09-09T16:26:09;4.33;;;1.97;;
73476;SDS011;61713;51.034;13.756;2022-09-09T16:28:37;3.55;;;2.00;;
73476;SDS011;61713;51.034;13.756;2022-09-09T16:31:06;6.27;;;2.33;;
73476;SDS011;61713;51.034;13.756;2022-09-09T16:33:32;5.25;;;2.20;;
73476;SDS011;61713;51.034;13.756;2022-09-09T16:36:04;3.25;;;1.90;;
73476;SDS011;61713;51.034;13.756;2022-09-09T16:38:30;3.28;;;2.00;;
73476;SDS011;61713;51.034;13.756;2022-09-09T16:40:59;5.20;;;2.53;;
73476;SDS011;61713;51.034;13.756;2022-09-09T16:43:25;4.10;;;1.80;;
73476;SDS011;61713;51.034;13.756;2022-09-09T16:45:51;4.00;;;2.03;;
73476;SDS011;61713;51.034;13.756;2022-09-09T16:48:16;5.47;;;2.23;;
73476;SDS011;61713;51.034;13.756;2022-09-09T16:50:42;3.10;;;1.40;;
73476;SDS011;61713;51.034;13.756;2022-09-09T16:53:07;3.90;;;1.73;;
73476;SDS011;61713;51.034;13.756;2022-09-09T16:55:37;4.00;;;1.70;;
73476;SDS011;61713;51.034;13.756;2022-09-09T16:58:04;3.67;;;1.77;;